sensor_id;sensor_type;location;lat;lon;timestamp;P1;durP1;ratioP1;P2;durP2;ratioP2
73219;SDS011;61434;43.538;-5.688;2023-04-24T00:00:53;823.03;;;220.07;;
73219;SDS011;61434;43.538;-5.688;2023-04-24T00:03:21;834.30;;;223.50;;
73219;SDS011;61434;43.538;-5.688;2023-04-24T00:05:47;829.20;;;222.07;;
73219;SDS011;61434;43.538;-5.688;2023-04-24T00:08:12;851.13;;;228.40;;
73219;SDS011;61434;43.538;-5.688;2023-04-24T00:10:37;963.47;;;270.37;;
73219;SDS011;61434;43.538;-5.688;2023-04-24T00:13:03;791.27;;;212.17;;
73219;SDS011;61434;43.538;-5.688;2023-04-24T00:15:28;778.60;;;209.00;;
73219;SDS011;61434;43.538;-5.688;2023-04-24T00:17:53;776.37;;;208.70;;
73219;SDS011;61434;43.538;-5.688;2023-04-24T00:20:19;780.63;;;209.43;;
73219;SDS011;61434;43.538;-5.688;2023-04-24T00:22:44;782.45;;;210.25;;
73219;SDS011;61434;43.538;-5.688;2023-04-24T00:25:10;785.43;;;210.93;;
73219;SDS011;61434;43.538;-5.688;2023-04-24T00:27:35;786.73;;;210.13;;
73219;SDS011;61434;43.538;-5.688;2023-04-24T00:30:02;789.33;;;212.05;;
73219;SDS011;61434;43.538;-5.688;2023-04-24T00:32:27;793.77;;;214.50;;
73219;SDS011;61434;43.538;-5.688;2023-04-24T00:34:53;802.37;;;217.03;;
73219;SDS011;61434;43.538;-5.688;2023-04-24T00:37:18;800.77;;;217.07;;
73219;SDS011;61434;43.538;-5.688;2023-04-24T00:39:43;793.43;;;212.97;;
73219;SDS011;61434;43.538;-5.688;2023-04-24T00:42:09;790.83;;;212.67;;
73219;SDS011;61434;43.538;-5.688;2023-04-24T00:44:34;786.20;;;212.23;;
73219;SDS011;61434;43.538;-5.688;2023-04-24T00:47:00;785.03;;;210.90;;
73219;SDS011;61434;43.538;-5.688;2023-04-24T00:49:25;787.72;;;210.98;;
73219;SDS011;61434;43.538;-5.688;2023-04-24T00:51:51;791.60;;;214.90;;
73219;SDS011;61434;43.538;-5.688;2023-04-24T00:54:16;782.47;;;211.73;;
73219;SDS011;61434;43.538;-5.688;2023-04-24T00:56:42;786.23;;;211.20;;
73219;SDS011;61434;43.538;-5.688;2023-04-24T00:59:07;785.53;;;211.18;;
73219;SDS011;61434;43.538;-5.688;2023-04-24T01:01:33;786.20;;;211.47;;
73219;SDS011;61434;43.538;-5.688;2023-04-24T01:03:58;787.40;;;212.40;;
73219;SDS011;61434;43.538;-5.688;2023-04-24T01:06:24;794.93;;;215.10;;
73219;SDS011;61434;43.538;-5.688;2023-04-24T01:08:52;795.70;;;215.35;;
73219;SDS011;61434;43.538;-5.688;2023-04-24T01:11:17;793.83;;;214.27;;
73219;SDS011;61434;43.538;-5.688;2023-04-24T01:13:43;790.03;;;212.77;;
73219;SDS011;61434;43.538;-5.688;2023-04-24T01:16:08;789.90;;;212.53;;
73219;SDS011;61434;43.538;-5.688;2023-04-24T01:18:34;788.60;;;212.23;;
73219;SDS011;61434;43.538;-5.688;2023-04-24T01:20:59;782.17;;;210.50;;
73219;SDS011;61434;43.538;-5.688;2023-04-24T01:23:28;785.17;;;211.40;;
73219;SDS011;61434;43.538;-5.688;2023-04-24T01:25:53;784.75;;;211.27;;
73219;SDS011;61434;43.538;-5.688;2023-04-24T01:28:19;788.37;;;212.63;;
73219;SDS011;61434;43.538;-5.688;2023-04-24T01:30:44;787.87;;;212.47;;
73219;SDS011;61434;43.538;-5.688;2023-04-24T01:33:09;790.23;;;213.33;;
73219;SDS011;61434;43.538;-5.688;2023-04-24T01:35:35;796.70;;;215.25;;
73219;SDS011;61434;43.538;-5.688;2023-04-24T01:38:01;797.70;;;214.90;;
73219;SDS011;61434;43.538;-5.688;2023-04-24T01:40:26;801.65;;;216.85;;
73219;SDS011;61434;43.538;-5.688;2023-04-24T01:42:52;804.83;;;217.60;;
73219;SDS011;61434;43.538;-5.688;2023-04-24T01:45:17;805.77;;;217.23;;
73219;SDS011;61434;43.538;-5.688;2023-04-24T01:47:42;807.37;;;218.73;;
73219;SDS011;61434;43.538;-5.688;2023-04-24T01:50:09;814.85;;;220.25;;
73219;SDS011;61434;43.538;-5.688;2023-04-24T01:52:34;818.77;;;221.23;;
73219;SDS011;61434;43.538;-5.688;2023-04-24T01:55:01;825.35;;;223.70;;
73219;SDS011;61434;43.538;-5.688;2023-04-24T01:57:26;821.10;;;222.37;;
73219;SDS011;61434;43.538;-5.688;2023-04-24T01:59:51;823.03;;;222.47;;
73219;SDS011;61434;43.538;-5.688;2023-04-24T02:02:17;825.73;;;223.00;;
73219;SDS011;61434;43.538;-5.688;2023-04-24T02:04:42;828.20;;;223.30;;
73219;SDS011;61434;43.538;-5.688;2023-04-24T02:07:07;827.00;;;223.20;;
73219;SDS011;61434;43.538;-5.688;2023-04-24T02:09:33;826.17;;;223.27;;
73219;SDS011;61434;43.538;-5.688;2023-04-24T02:11:58;827.23;;;222.10;;
73219;SDS011;61434;43.538;-5.688;2023-04-24T02:14:23;823.70;;;223.40;;
73219;SDS011;61434;43.538;-5.688;2023-04-24T02:16:49;825.63;;;223.07;;
73219;SDS011;61434;43.538;-5.688;2023-04-24T02:19:14;823.37;;;222.43;;
73219;SDS011;61434;43.538;-5.688;2023-04-24T02:21:40;823.40;;;221.97;;
73219;SDS011;61434;43.538;-5.688;2023-04-24T02:24:05;825.70;;;223.07;;
73219;SDS011;61434;43.538;-5.688;2023-04-24T02:26:30;828.27;;;223.63;;
73219;SDS011;61434;43.538;-5.688;2023-04-24T02:28:56;826.45;;;222.75;;
73219;SDS011;61434;43.538;-5.688;2023-04-24T02:31:22;827.90;;;222.43;;
73219;SDS011;61434;43.538;-5.688;2023-04-24T02:33:47;837.67;;;225.07;;
73219;SDS011;61434;43.538;-5.688;2023-04-24T02:36:12;848.30;;;227.57;;
73219;SDS011;61434;43.538;-5.688;2023-04-24T02:38:38;859.70;;;230.35;;
73219;SDS011;61434;43.538;-5.688;2023-04-24T02:41:04;885.97;;;238.17;;
73219;SDS011;61434;43.538;-5.688;2023-04-24T02:43:31;1072.13;;;308.85;;
73219;SDS011;61434;43.538;-5.688;2023-04-24T02:45:56;834.00;;;228.07;;
73219;SDS011;61434;43.538;-5.688;2023-04-24T02:48:21;825.17;;;223.23;;
73219;SDS011;61434;43.538;-5.688;2023-04-24T02:50:47;825.70;;;223.38;;
73219;SDS011;61434;43.538;-5.688;2023-04-24T02:53:12;816.13;;;221.90;;
73219;SDS011;61434;43.538;-5.688;2023-04-24T02:55:38;817.60;;;221.33;;
73219;SDS011;61434;43.538;-5.688;2023-04-24T02:58:03;822.03;;;224.50;;
73219;SDS011;61434;43.538;-5.688;2023-04-24T03:00:28;824.47;;;224.47;;
73219;SDS011;61434;43.538;-5.688;2023-04-24T03:02:54;821.83;;;224.97;;
73219;SDS011;61434;43.538;-5.688;2023-04-24T03:05:19;821.83;;;224.30;;
73219;SDS011;61434;43.538;-5.688;2023-04-24T03:07:44;819.80;;;223.93;;
73219;SDS011;61434;43.538;-5.688;2023-04-24T03:10:10;824.43;;;223.80;;
73219;SDS011;61434;43.538;-5.688;2023-04-24T03:12:36;826.40;;;224.23;;
73219;SDS011;61434;43.538;-5.688;2023-04-24T03:15:01;827.88;;;224.68;;
73219;SDS011;61434;43.538;-5.688;2023-04-24T03:17:26;831.23;;;225.43;;
73219;SDS011;61434;43.538;-5.688;2023-04-24T03:19:51;831.97;;;225.73;;
73219;SDS011;61434;43.538;-5.688;2023-04-24T03:22:17;841.60;;;228.73;;
73219;SDS011;61434;43.538;-5.688;2023-04-24T03:24:42;843.30;;;229.57;;
73219;SDS011;61434;43.538;-5.688;2023-04-24T03:27:07;841.47;;;228.67;;
73219;SDS011;61434;43.538;-5.688;2023-04-24T03:29:33;844.33;;;229.27;;
73219;SDS011;61434;43.538;-5.688;2023-04-24T03:31:58;844.87;;;229.97;;
73219;SDS011;61434;43.538;-5.688;2023-04-24T03:34:23;846.20;;;229.80;;
73219;SDS011;61434;43.538;-5.688;2023-04-24T03:36:49;842.92;;;228.20;;
73219;SDS011;61434;43.538;-5.688;2023-04-24T03:39:14;849.00;;;230.50;;
73219;SDS011;61434;43.538;-5.688;2023-04-24T03:41:40;853.00;;;230.63;;
73219;SDS011;61434;43.538;-5.688;2023-04-24T03:44:05;858.77;;;232.77;;
73219;SDS011;61434;43.538;-5.688;2023-04-24T03:46:30;851.17;;;231.10;;
73219;SDS011;61434;43.538;-5.688;2023-04-24T03:48:55;854.90;;;231.45;;
73219;SDS011;61434;43.538;-5.688;2023-04-24T03:51:21;860.07;;;233.00;;
73219;SDS011;61434;43.538;-5.688;2023-04-24T03:53:46;865.63;;;234.27;;
73219;SDS011;61434;43.538;-5.688;2023-04-24T03:56:12;885.30;;;240.07;;
73219;SDS011;61434;43.538;-5.688;2023-04-24T03:58:37;1074.17;;;309.83;;
73219;SDS011;61434;43.538;-5.688;2023-04-24T04:01:02;907.93;;;250.27;;
73219;SDS011;61434;43.538;-5.688;2023-04-24T04:03:28;904.73;;;247.87;;
73219;SDS011;61434;43.538;-5.688;2023-04-24T04:05:53;902.40;;;248.57;;
73219;SDS011;61434;43.538;-5.688;2023-04-24T04:08:19;870.47;;;238.67;;
73219;SDS011;61434;43.538;-5.688;2023-04-24T04:10:44;870.23;;;241.77;;
73219;SDS011;61434;43.538;-5.688;2023-04-24T04:13:09;872.73;;;239.80;;
73219;SDS011;61434;43.538;-5.688;2023-04-24T04:15:35;888.83;;;243.07;;
73219;SDS011;61434;43.538;-5.688;2023-04-24T04:18:00;1063.60;;;308.37;;
73219;SDS011;61434;43.538;-5.688;2023-04-24T04:20:26;874.83;;;240.80;;
73219;SDS011;61434;43.538;-5.688;2023-04-24T04:22:51;872.17;;;240.27;;
73219;SDS011;61434;43.538;-5.688;2023-04-24T04:25:16;867.10;;;236.37;;
73219;SDS011;61434;43.538;-5.688;2023-04-24T04:27:44;872.40;;;239.32;;
73219;SDS011;61434;43.538;-5.688;2023-04-24T04:30:09;858.60;;;234.37;;
73219;SDS011;61434;43.538;-5.688;2023-04-24T04:32:35;858.20;;;233.65;;
73219;SDS011;61434;43.538;-5.688;2023-04-24T04:35:00;859.17;;;233.67;;
73219;SDS011;61434;43.538;-5.688;2023-04-24T04:37:32;860.47;;;233.88;;
73219;SDS011;61434;43.538;-5.688;2023-04-24T04:40:01;860.70;;;234.20;;
73219;SDS011;61434;43.538;-5.688;2023-04-24T04:42:31;869.53;;;237.48;;
73219;SDS011;61434;43.538;-5.688;2023-04-24T04:44:57;867.95;;;237.23;;
73219;SDS011;61434;43.538;-5.688;2023-04-24T04:47:22;867.83;;;236.97;;
73219;SDS011;61434;43.538;-5.688;2023-04-24T04:49:51;861.70;;;234.98;;
73219;SDS011;61434;43.538;-5.688;2023-04-24T04:52:17;873.00;;;238.80;;
73219;SDS011;61434;43.538;-5.688;2023-04-24T04:54:42;870.67;;;238.82;;
73219;SDS011;61434;43.538;-5.688;2023-04-24T04:57:08;889.63;;;244.23;;
73219;SDS011;61434;43.538;-5.688;2023-04-24T04:59:34;1062.03;;;308.00;;
73219;SDS011;61434;43.538;-5.688;2023-04-24T05:01:59;891.47;;;245.17;;
73219;SDS011;61434;43.538;-5.688;2023-04-24T05:04:24;891.93;;;247.63;;
73219;SDS011;61434;43.538;-5.688;2023-04-24T05:06:50;897.00;;;248.20;;
73219;SDS011;61434;43.538;-5.688;2023-04-24T05:09:16;904.60;;;249.90;;
73219;SDS011;61434;43.538;-5.688;2023-04-24T05:11:41;987.60;;;277.07;;
73219;SDS011;61434;43.538;-5.688;2023-04-24T05:14:06;1081.60;;;315.17;;
73219;SDS011;61434;43.538;-5.688;2023-04-24T05:16:32;961.60;;;269.23;;
73219;SDS011;61434;43.538;-5.688;2023-04-24T05:18:57;950.00;;;271.17;;
73219;SDS011;61434;43.538;-5.688;2023-04-24T05:21:22;956.07;;;274.17;;
73219;SDS011;61434;43.538;-5.688;2023-04-24T05:23:48;929.60;;;266.40;;
73219;SDS011;61434;43.538;-5.688;2023-04-24T05:26:13;934.47;;;267.27;;
73219;SDS011;61434;43.538;-5.688;2023-04-24T05:28:39;939.00;;;270.25;;
73219;SDS011;61434;43.538;-5.688;2023-04-24T05:31:05;931.97;;;266.50;;
73219;SDS011;61434;43.538;-5.688;2023-04-24T05:33:31;954.08;;;272.73;;
73219;SDS011;61434;43.538;-5.688;2023-04-24T05:35:56;938.30;;;266.97;;
73219;SDS011;61434;43.538;-5.688;2023-04-24T05:38:22;935.72;;;266.45;;
73219;SDS011;61434;43.538;-5.688;2023-04-24T05:40:47;910.00;;;255.70;;
73219;SDS011;61434;43.538;-5.688;2023-04-24T05:43:13;907.33;;;255.33;;
73219;SDS011;61434;43.538;-5.688;2023-04-24T05:45:38;875.03;;;244.87;;
73219;SDS011;61434;43.538;-5.688;2023-04-24T05:48:03;882.60;;;246.27;;
73219;SDS011;61434;43.538;-5.688;2023-04-24T05:50:29;872.33;;;242.57;;
73219;SDS011;61434;43.538;-5.688;2023-04-24T05:52:55;863.42;;;237.10;;
73219;SDS011;61434;43.538;-5.688;2023-04-24T05:55:21;853.25;;;234.38;;
73219;SDS011;61434;43.538;-5.688;2023-04-24T05:57:46;857.90;;;235.00;;
73219;SDS011;61434;43.538;-5.688;2023-04-24T06:00:12;855.77;;;235.57;;
73219;SDS011;61434;43.538;-5.688;2023-04-24T06:02:38;852.83;;;234.50;;
73219;SDS011;61434;43.538;-5.688;2023-04-24T06:05:03;860.00;;;236.13;;
73219;SDS011;61434;43.538;-5.688;2023-04-24T06:07:29;865.38;;;237.75;;
73219;SDS011;61434;43.538;-5.688;2023-04-24T06:09:55;856.33;;;235.27;;
73219;SDS011;61434;43.538;-5.688;2023-04-24T06:12:20;857.63;;;234.83;;
73219;SDS011;61434;43.538;-5.688;2023-04-24T06:14:46;870.80;;;239.40;;
73219;SDS011;61434;43.538;-5.688;2023-04-24T06:17:12;901.90;;;249.90;;
73219;SDS011;61434;43.538;-5.688;2023-04-24T06:19:37;965.38;;;272.25;;
73219;SDS011;61434;43.538;-5.688;2023-04-24T06:22:03;961.07;;;270.50;;
73219;SDS011;61434;43.538;-5.688;2023-04-24T06:24:28;947.17;;;267.07;;
73219;SDS011;61434;43.538;-5.688;2023-04-24T06:26:54;949.03;;;267.37;;
73219;SDS011;61434;43.538;-5.688;2023-04-24T06:29:19;935.93;;;263.53;;
73219;SDS011;61434;43.538;-5.688;2023-04-24T06:31:44;896.30;;;248.10;;
73219;SDS011;61434;43.538;-5.688;2023-04-24T06:34:10;930.90;;;259.57;;
73219;SDS011;61434;43.538;-5.688;2023-04-24T06:36:35;933.37;;;260.67;;
73219;SDS011;61434;43.538;-5.688;2023-04-24T06:39:00;946.10;;;261.70;;
73219;SDS011;61434;43.538;-5.688;2023-04-24T06:41:26;919.95;;;254.10;;
73219;SDS011;61434;43.538;-5.688;2023-04-24T06:43:52;934.53;;;260.00;;
73219;SDS011;61434;43.538;-5.688;2023-04-24T06:46:17;925.20;;;257.47;;
73219;SDS011;61434;43.538;-5.688;2023-04-24T06:48:42;939.60;;;260.93;;
73219;SDS011;61434;43.538;-5.688;2023-04-24T06:51:08;960.55;;;268.45;;
73219;SDS011;61434;43.538;-5.688;2023-04-24T06:53:34;1002.53;;;284.37;;
73219;SDS011;61434;43.538;-5.688;2023-04-24T06:55:59;996.87;;;283.33;;
73219;SDS011;61434;43.538;-5.688;2023-04-24T06:58:24;976.77;;;275.93;;
73219;SDS011;61434;43.538;-5.688;2023-04-24T07:00:50;1035.43;;;297.93;;
73219;SDS011;61434;43.538;-5.688;2023-04-24T07:03:15;1019.33;;;292.30;;
73219;SDS011;61434;43.538;-5.688;2023-04-24T07:05:41;1001.27;;;286.53;;
73219;SDS011;61434;43.538;-5.688;2023-04-24T07:08:06;999.87;;;287.53;;
73219;SDS011;61434;43.538;-5.688;2023-04-24T07:10:32;994.42;;;283.98;;
73219;SDS011;61434;43.538;-5.688;2023-04-24T07:13:00;984.57;;;282.43;;
73219;SDS011;61434;43.538;-5.688;2023-04-24T07:15:29;1007.95;;;288.65;;
73219;SDS011;61434;43.538;-5.688;2023-04-24T07:17:55;992.55;;;284.60;;
73219;SDS011;61434;43.538;-5.688;2023-04-24T07:20:20;1006.23;;;288.50;;
73219;SDS011;61434;43.538;-5.688;2023-04-24T07:22:45;1002.67;;;288.00;;
73219;SDS011;61434;43.538;-5.688;2023-04-24T07:25:11;1000.53;;;285.27;;
73219;SDS011;61434;43.538;-5.688;2023-04-24T07:27:36;1011.85;;;287.58;;
73219;SDS011;61434;43.538;-5.688;2023-04-24T07:30:02;968.50;;;273.93;;
73219;SDS011;61434;43.538;-5.688;2023-04-24T07:32:28;964.83;;;273.02;;
73219;SDS011;61434;43.538;-5.688;2023-04-24T07:34:54;968.73;;;273.03;;
73219;SDS011;61434;43.538;-5.688;2023-04-24T07:37:20;969.97;;;272.23;;
73219;SDS011;61434;43.538;-5.688;2023-04-24T07:39:45;954.80;;;269.25;;
73219;SDS011;61434;43.538;-5.688;2023-04-24T07:42:10;956.37;;;267.20;;
73219;SDS011;61434;43.538;-5.688;2023-04-24T07:44:36;947.90;;;264.00;;
73219;SDS011;61434;43.538;-5.688;2023-04-24T07:47:01;938.73;;;261.50;;
73219;SDS011;61434;43.538;-5.688;2023-04-24T07:49:26;942.87;;;261.97;;
73219;SDS011;61434;43.538;-5.688;2023-04-24T07:51:52;942.88;;;261.42;;
73219;SDS011;61434;43.538;-5.688;2023-04-24T07:54:18;938.57;;;258.47;;
73219;SDS011;61434;43.538;-5.688;2023-04-24T07:56:43;933.30;;;255.03;;
73219;SDS011;61434;43.538;-5.688;2023-04-24T07:59:09;924.28;;;253.60;;
73219;SDS011;61434;43.538;-5.688;2023-04-24T08:01:35;918.30;;;249.47;;
73219;SDS011;61434;43.538;-5.688;2023-04-24T08:04:00;927.35;;;250.90;;
73219;SDS011;61434;43.538;-5.688;2023-04-24T08:06:26;926.80;;;251.47;;
73219;SDS011;61434;43.538;-5.688;2023-04-24T08:08:55;918.90;;;248.63;;
73219;SDS011;61434;43.538;-5.688;2023-04-24T08:11:20;918.72;;;246.98;;
73219;SDS011;61434;43.538;-5.688;2023-04-24T08:13:46;923.77;;;248.20;;
73219;SDS011;61434;43.538;-5.688;2023-04-24T08:16:11;923.47;;;247.83;;
73219;SDS011;61434;43.538;-5.688;2023-04-24T08:18:36;919.07;;;247.30;;
73219;SDS011;61434;43.538;-5.688;2023-04-24T08:21:02;932.07;;;250.70;;
73219;SDS011;61434;43.538;-5.688;2023-04-24T08:23:27;914.45;;;243.77;;
73219;SDS011;61434;43.538;-5.688;2023-04-24T08:25:54;932.33;;;248.82;;
73219;SDS011;61434;43.538;-5.688;2023-04-24T08:28:19;1012.90;;;271.80;;
73219;SDS011;61434;43.538;-5.688;2023-04-24T08:30:45;1029.07;;;278.77;;
73219;SDS011;61434;43.538;-5.688;2023-04-24T08:33:11;1010.60;;;273.80;;
73219;SDS011;61434;43.538;-5.688;2023-04-24T08:35:36;995.00;;;267.87;;
73219;SDS011;61434;43.538;-5.688;2023-04-24T08:38:02;1021.60;;;276.87;;
73219;SDS011;61434;43.538;-5.688;2023-04-24T08:40:28;1023.90;;;277.40;;
73219;SDS011;61434;43.538;-5.688;2023-04-24T08:42:54;1000.33;;;271.15;;
73219;SDS011;61434;43.538;-5.688;2023-04-24T08:45:21;999.28;;;271.38;;
73219;SDS011;61434;43.538;-5.688;2023-04-24T08:47:48;1010.55;;;277.60;;
73219;SDS011;61434;43.538;-5.688;2023-04-24T08:50:14;995.63;;;272.53;;
73219;SDS011;61434;43.538;-5.688;2023-04-24T08:52:40;1039.35;;;287.88;;
73219;SDS011;61434;43.538;-5.688;2023-04-24T08:55:06;1069.07;;;298.67;;
73219;SDS011;61434;43.538;-5.688;2023-04-24T08:57:32;1062.07;;;293.90;;
73219;SDS011;61434;43.538;-5.688;2023-04-24T08:59:58;1060.90;;;296.35;;
73219;SDS011;61434;43.538;-5.688;2023-04-24T09:02:23;1056.10;;;292.70;;
73219;SDS011;61434;43.538;-5.688;2023-04-24T09:04:49;1038.93;;;287.27;;
73219;SDS011;61434;43.538;-5.688;2023-04-24T09:07:15;1047.47;;;289.37;;
73219;SDS011;61434;43.538;-5.688;2023-04-24T09:09:42;1047.05;;;289.98;;
73219;SDS011;61434;43.538;-5.688;2023-04-24T09:12:07;1037.30;;;286.67;;
73219;SDS011;61434;43.538;-5.688;2023-04-24T09:14:35;989.67;;;275.43;;
73219;SDS011;61434;43.538;-5.688;2023-04-24T09:17:01;972.55;;;269.52;;
73219;SDS011;61434;43.538;-5.688;2023-04-24T09:19:27;952.33;;;262.30;;
73219;SDS011;61434;43.538;-5.688;2023-04-24T09:21:53;981.63;;;265.95;;
73219;SDS011;61434;43.538;-5.688;2023-04-24T09:24:19;1007.25;;;277.05;;
73219;SDS011;61434;43.538;-5.688;2023-04-24T09:26:47;1015.87;;;280.47;;
73219;SDS011;61434;43.538;-5.688;2023-04-24T09:29:16;1018.65;;;280.42;;
73219;SDS011;61434;43.538;-5.688;2023-04-24T09:31:42;1002.45;;;275.55;;
73219;SDS011;61434;43.538;-5.688;2023-04-24T09:34:07;1025.43;;;283.27;;
73219;SDS011;61434;43.538;-5.688;2023-04-24T09:36:33;1017.73;;;279.23;;
73219;SDS011;61434;43.538;-5.688;2023-04-24T09:39:02;1023.53;;;280.63;;
73219;SDS011;61434;43.538;-5.688;2023-04-24T09:41:28;1042.63;;;284.45;;
73219;SDS011;61434;43.538;-5.688;2023-04-24T09:43:56;1034.85;;;282.48;;
73219;SDS011;61434;43.538;-5.688;2023-04-24T09:46:28;1030.83;;;280.23;;
73219;SDS011;61434;43.538;-5.688;2023-04-24T09:48:54;1010.45;;;274.25;;
73219;SDS011;61434;43.538;-5.688;2023-04-24T09:51:19;1006.00;;;273.30;;
73219;SDS011;61434;43.538;-5.688;2023-04-24T09:54:01;1010.42;;;273.73;;
73219;SDS011;61434;43.538;-5.688;2023-04-24T09:56:27;989.77;;;267.30;;
73219;SDS011;61434;43.538;-5.688;2023-04-24T09:58:53;964.28;;;256.50;;
73219;SDS011;61434;43.538;-5.688;2023-04-24T10:01:31;1010.90;;;270.43;;
73219;SDS011;61434;43.538;-5.688;2023-04-24T10:03:57;1010.72;;;271.63;;
73219;SDS011;61434;43.538;-5.688;2023-04-24T10:06:22;994.47;;;265.00;;
73219;SDS011;61434;43.538;-5.688;2023-04-24T10:08:47;1012.67;;;270.70;;
73219;SDS011;61434;43.538;-5.688;2023-04-24T10:11:13;987.33;;;265.97;;
73219;SDS011;61434;43.538;-5.688;2023-04-24T10:13:39;991.67;;;267.15;;
73219;SDS011;61434;43.538;-5.688;2023-04-24T10:16:05;995.30;;;265.77;;
73219;SDS011;61434;43.538;-5.688;2023-04-24T10:18:32;972.05;;;257.15;;
73219;SDS011;61434;43.538;-5.688;2023-04-24T10:20:58;1025.25;;;273.83;;
73219;SDS011;61434;43.538;-5.688;2023-04-24T10:23:25;1021.60;;;268.73;;
73219;SDS011;61434;43.538;-5.688;2023-04-24T10:25:50;987.37;;;257.03;;
73219;SDS011;61434;43.538;-5.688;2023-04-24T10:28:16;1074.05;;;283.75;;
73219;SDS011;61434;43.538;-5.688;2023-04-24T10:30:43;1153.57;;;310.47;;
73219;SDS011;61434;43.538;-5.688;2023-04-24T10:33:08;837.72;;;214.10;;
73219;SDS011;61434;43.538;-5.688;2023-04-24T10:35:35;824.43;;;210.13;;
73219;SDS011;61434;43.538;-5.688;2023-04-24T10:38:02;833.72;;;210.80;;
73219;SDS011;61434;43.538;-5.688;2023-04-24T10:40:31;838.28;;;211.50;;
73219;SDS011;61434;43.538;-5.688;2023-04-24T10:42:58;879.90;;;223.65;;
73219;SDS011;61434;43.538;-5.688;2023-04-24T10:45:23;970.00;;;245.80;;
73219;SDS011;61434;43.538;-5.688;2023-04-24T10:47:52;1155.87;;;304.03;;
73219;SDS011;61434;43.538;-5.688;2023-04-24T10:50:18;1165.25;;;306.55;;
73219;SDS011;61434;43.538;-5.688;2023-04-24T10:52:47;911.57;;;233.30;;
73219;SDS011;61434;43.538;-5.688;2023-04-24T10:55:13;901.90;;;230.85;;
73219;SDS011;61434;43.538;-5.688;2023-04-24T10:57:40;903.75;;;233.18;;
73219;SDS011;61434;43.538;-5.688;2023-04-24T11:00:25;910.83;;;233.20;;
73219;SDS011;61434;43.538;-5.688;2023-04-24T11:02:52;912.45;;;232.57;;
73219;SDS011;61434;43.538;-5.688;2023-04-24T11:05:19;907.78;;;234.05;;
73219;SDS011;61434;43.538;-5.688;2023-04-24T11:10:28;923.70;;;236.57;;
73219;SDS011;61434;43.538;-5.688;2023-04-24T11:12:54;955.23;;;244.60;;
73219;SDS011;61434;43.538;-5.688;2023-04-24T11:15:19;1084.63;;;282.83;;
73219;SDS011;61434;43.538;-5.688;2023-04-24T11:17:45;1171.63;;;310.40;;
73219;SDS011;61434;43.538;-5.688;2023-04-24T11:20:11;1160.53;;;307.00;;
73219;SDS011;61434;43.538;-5.688;2023-04-24T11:22:40;1150.30;;;303.00;;
73219;SDS011;61434;43.538;-5.688;2023-04-24T11:25:05;1129.85;;;297.70;;
73219;SDS011;61434;43.538;-5.688;2023-04-24T11:27:34;1125.50;;;296.33;;
73219;SDS011;61434;43.538;-5.688;2023-04-24T11:30:03;1128.15;;;296.73;;
73219;SDS011;61434;43.538;-5.688;2023-04-24T11:32:30;1126.55;;;298.42;;
73219;SDS011;61434;43.538;-5.688;2023-04-24T11:34:57;1129.50;;;297.23;;
73219;SDS011;61434;43.538;-5.688;2023-04-24T11:37:24;1143.82;;;301.02;;
73219;SDS011;61434;43.538;-5.688;2023-04-24T11:39:53;1125.43;;;295.20;;
73219;SDS011;61434;43.538;-5.688;2023-04-24T11:42:18;1122.53;;;294.42;;
73219;SDS011;61434;43.538;-5.688;2023-04-24T11:44:44;1106.97;;;289.50;;
73219;SDS011;61434;43.538;-5.688;2023-04-24T11:47:12;1057.38;;;276.92;;
73219;SDS011;61434;43.538;-5.688;2023-04-24T11:49:37;1052.07;;;275.83;;
73219;SDS011;61434;43.538;-5.688;2023-04-24T11:52:03;1045.03;;;271.85;;
73219;SDS011;61434;43.538;-5.688;2023-04-24T11:54:29;1028.85;;;266.58;;
73219;SDS011;61434;43.538;-5.688;2023-04-24T11:56:55;1036.30;;;269.00;;
73219;SDS011;61434;43.538;-5.688;2023-04-24T11:59:21;1015.38;;;261.20;;
73219;SDS011;61434;43.538;-5.688;2023-04-24T12:01:46;1006.97;;;259.38;;
73219;SDS011;61434;43.538;-5.688;2023-04-24T12:04:12;1003.60;;;256.40;;
73219;SDS011;61434;43.538;-5.688;2023-04-24T12:06:38;1022.13;;;261.02;;
73219;SDS011;61434;43.538;-5.688;2023-04-24T12:09:03;1017.43;;;258.27;;
73219;SDS011;61434;43.538;-5.688;2023-04-24T12:11:29;1035.30;;;263.17;;
73219;SDS011;61434;43.538;-5.688;2023-04-24T12:13:54;1061.53;;;270.35;;
73219;SDS011;61434;43.538;-5.688;2023-04-24T12:16:20;1052.33;;;267.13;;
73219;SDS011;61434;43.538;-5.688;2023-04-24T12:18:45;1091.87;;;279.23;;
73219;SDS011;61434;43.538;-5.688;2023-04-24T12:21:29;1082.70;;;275.20;;
73219;SDS011;61434;43.538;-5.688;2023-04-24T12:23:56;1118.47;;;287.40;;
73219;SDS011;61434;43.538;-5.688;2023-04-24T12:26:22;1138.03;;;292.07;;
73219;SDS011;61434;43.538;-5.688;2023-04-24T12:28:48;1150.35;;;295.23;;
73219;SDS011;61434;43.538;-5.688;2023-04-24T12:31:14;1148.80;;;296.08;;
73219;SDS011;61434;43.538;-5.688;2023-04-24T12:33:40;1145.27;;;296.17;;
73219;SDS011;61434;43.538;-5.688;2023-04-24T12:36:05;1146.20;;;295.38;;
73219;SDS011;61434;43.538;-5.688;2023-04-24T12:38:31;1147.33;;;295.50;;
73219;SDS011;61434;43.538;-5.688;2023-04-24T12:41:14;1140.10;;;293.15;;
73219;SDS011;61434;43.538;-5.688;2023-04-24T12:43:50;1162.03;;;299.70;;
73219;SDS011;61434;43.538;-5.688;2023-04-24T12:46:16;1154.13;;;296.42;;
73219;SDS011;61434;43.538;-5.688;2023-04-24T12:48:41;1165.10;;;300.03;;
73219;SDS011;61434;43.538;-5.688;2023-04-24T12:51:06;1150.10;;;295.63;;
73219;SDS011;61434;43.538;-5.688;2023-04-24T12:53:31;1161.63;;;296.83;;
73219;SDS011;61434;43.538;-5.688;2023-04-24T12:55:57;1162.40;;;297.17;;
73219;SDS011;61434;43.538;-5.688;2023-04-24T12:58:22;1210.83;;;309.00;;
73219;SDS011;61434;43.538;-5.688;2023-04-24T13:00:48;1288.97;;;331.67;;
73219;SDS011;61434;43.538;-5.688;2023-04-24T13:03:13;1297.13;;;331.73;;
73219;SDS011;61434;43.538;-5.688;2023-04-24T13:05:39;1336.93;;;341.23;;
73219;SDS011;61434;43.538;-5.688;2023-04-24T13:08:04;1346.20;;;343.83;;
73219;SDS011;61434;43.538;-5.688;2023-04-24T13:10:30;1303.60;;;331.60;;
73219;SDS011;61434;43.538;-5.688;2023-04-24T13:12:55;1343.97;;;338.00;;
73219;SDS011;61434;43.538;-5.688;2023-04-24T13:15:20;1180.83;;;318.07;;
73219;SDS011;61434;43.538;-5.688;2023-04-24T13:17:46;816.33;;;216.43;;
73219;SDS011;61434;43.538;-5.688;2023-04-24T13:20:11;856.47;;;229.77;;
73219;SDS011;61434;43.538;-5.688;2023-04-24T13:22:36;872.80;;;234.70;;
73219;SDS011;61434;43.538;-5.688;2023-04-24T13:25:02;865.63;;;231.57;;
73219;SDS011;61434;43.538;-5.688;2023-04-24T13:27:28;859.50;;;230.30;;
73219;SDS011;61434;43.538;-5.688;2023-04-24T13:29:53;892.07;;;242.30;;
73219;SDS011;61434;43.538;-5.688;2023-04-24T13:32:18;573.93;;;149.27;;
73219;SDS011;61434;43.538;-5.688;2023-04-24T13:34:43;901.10;;;245.02;;
73219;SDS011;61434;43.538;-5.688;2023-04-24T13:37:09;879.93;;;239.37;;